sensor_id;sensor_type;location;lat;lon;timestamp;P1;durP1;ratioP1;P2;durP2;ratioP2
1128;SDS011;553;51.038;7.216;2023-02-15T00:01:47;34.03;;;19.53;;
1128;SDS011;553;51.038;7.216;2023-02-15T00:04:16;37.47;;;20.20;;
1128;SDS011;553;51.038;7.216;2023-02-15T00:06:44;36.80;;;20.00;;
1128;SDS011;553;51.038;7.216;2023-02-15T00:09:11;38.30;;;21.50;;
1128;SDS011;553;51.038;7.216;2023-02-15T00:11:38;36.47;;;20.20;;
1128;SDS011;553;51.038;7.216;2023-02-15T00:14:10;39.40;;;22.37;;
1128;SDS011;553;51.038;7.216;2023-02-15T00:16:37;36.07;;;21.90;;
1128;SDS011;553;51.038;7.216;2023-02-15T00:19:05;34.17;;;20.70;;
1128;SDS011;553;51.038;7.216;2023-02-15T00:21:33;38.60;;;22.27;;
1128;SDS011;553;51.038;7.216;2023-02-15T00:24:02;36.57;;;21.80;;
1128;SDS011;553;51.038;7.216;2023-02-15T00:26:31;33.90;;;19.80;;
1128;SDS011;553;51.038;7.216;2023-02-15T00:28:58;31.27;;;19.10;;
1128;SDS011;553;51.038;7.216;2023-02-15T00:31:29;42.33;;;22.57;;
1128;SDS011;553;51.038;7.216;2023-02-15T00:34:20;37.27;;;21.73;;
1128;SDS011;553;51.038;7.216;2023-02-15T00:36:49;34.87;;;20.03;;
1128;SDS011;553;51.038;7.216;2023-02-15T00:39:16;38.40;;;20.53;;
1128;SDS011;553;51.038;7.216;2023-02-15T00:41:44;41.60;;;22.27;;
1128;SDS011;553;51.038;7.216;2023-02-15T00:44:12;35.40;;;20.40;;
1128;SDS011;553;51.038;7.216;2023-02-15T00:46:40;43.13;;;22.30;;
1128;SDS011;553;51.038;7.216;2023-02-15T00:49:08;37.03;;;21.30;;
1128;SDS011;553;51.038;7.216;2023-02-15T00:51:36;38.77;;;22.53;;
1128;SDS011;553;51.038;7.216;2023-02-15T00:54:03;35.23;;;20.97;;
1128;SDS011;553;51.038;7.216;2023-02-15T00:56:30;41.43;;;22.57;;
1128;SDS011;553;51.038;7.216;2023-02-15T00:58:57;33.10;;;20.47;;
1128;SDS011;553;51.038;7.216;2023-02-15T01:01:23;37.47;;;23.57;;
1128;SDS011;553;51.038;7.216;2023-02-15T01:03:51;35.37;;;21.17;;
1128;SDS011;553;51.038;7.216;2023-02-15T01:06:18;42.57;;;22.33;;
1128;SDS011;553;51.038;7.216;2023-02-15T01:08:46;41.13;;;23.50;;
1128;SDS011;553;51.038;7.216;2023-02-15T01:11:15;43.33;;;21.70;;
1128;SDS011;553;51.038;7.216;2023-02-15T01:13:54;41.23;;;21.80;;
1128;SDS011;553;51.038;7.216;2023-02-15T01:16:23;37.80;;;21.47;;
1128;SDS011;553;51.038;7.216;2023-02-15T01:18:51;40.70;;;21.90;;
1128;SDS011;553;51.038;7.216;2023-02-15T01:21:19;40.03;;;22.67;;
1128;SDS011;553;51.038;7.216;2023-02-15T01:23:47;38.10;;;19.90;;
1128;SDS011;553;51.038;7.216;2023-02-15T01:26:14;40.77;;;22.07;;
1128;SDS011;553;51.038;7.216;2023-02-15T01:28:42;40.33;;;23.43;;
1128;SDS011;553;51.038;7.216;2023-02-15T01:31:13;41.77;;;22.00;;
1128;SDS011;553;51.038;7.216;2023-02-15T01:33:44;40.37;;;22.30;;
1128;SDS011;553;51.038;7.216;2023-02-15T01:36:11;44.33;;;23.07;;
1128;SDS011;553;51.038;7.216;2023-02-15T01:38:38;43.37;;;22.30;;
1128;SDS011;553;51.038;7.216;2023-02-15T01:41:08;41.50;;;23.27;;
1128;SDS011;553;51.038;7.216;2023-02-15T01:43:53;44.00;;;23.10;;
1128;SDS011;553;51.038;7.216;2023-02-15T01:46:34;42.83;;;23.70;;
1128;SDS011;553;51.038;7.216;2023-02-15T01:49:10;42.10;;;22.47;;
1128;SDS011;553;51.038;7.216;2023-02-15T01:51:40;43.67;;;23.07;;
1128;SDS011;553;51.038;7.216;2023-02-15T01:54:29;40.03;;;21.90;;
1128;SDS011;553;51.038;7.216;2023-02-15T01:57:00;42.37;;;23.40;;
1128;SDS011;553;51.038;7.216;2023-02-15T01:59:31;39.67;;;21.63;;
1128;SDS011;553;51.038;7.216;2023-02-15T02:02:02;36.27;;;21.30;;
1128;SDS011;553;51.038;7.216;2023-02-15T02:04:33;38.73;;;21.57;;
1128;SDS011;553;51.038;7.216;2023-02-15T02:07:06;44.70;;;23.30;;
1128;SDS011;553;51.038;7.216;2023-02-15T02:09:34;41.33;;;23.80;;
1128;SDS011;553;51.038;7.216;2023-02-15T02:12:01;44.90;;;24.23;;
1128;SDS011;553;51.038;7.216;2023-02-15T02:14:29;39.67;;;22.73;;
1128;SDS011;553;51.038;7.216;2023-02-15T02:19:45;43.40;;;22.73;;
1128;SDS011;553;51.038;7.216;2023-02-15T02:22:54;38.80;;;22.20;;
1128;SDS011;553;51.038;7.216;2023-02-15T02:25:43;44.20;;;24.37;;
1128;SDS011;553;51.038;7.216;2023-02-15T02:42:42;40.57;;;22.47;;
1128;SDS011;553;51.038;7.216;2023-02-15T02:44:43;42.95;;;23.90;;
1128;SDS011;553;51.038;7.216;2023-02-15T02:47:18;47.47;;;23.87;;
1128;SDS011;553;51.038;7.216;2023-02-15T02:49:58;47.77;;;25.00;;
1128;SDS011;553;51.038;7.216;2023-02-15T02:57:53;43.30;;;22.27;;
1128;SDS011;553;51.038;7.216;2023-02-15T03:00:21;42.40;;;23.10;;
1128;SDS011;553;51.038;7.216;2023-02-15T03:02:50;45.43;;;23.90;;
1128;SDS011;553;51.038;7.216;2023-02-15T03:05:24;44.27;;;22.97;;
1128;SDS011;553;51.038;7.216;2023-02-15T03:07:55;44.27;;;24.30;;
1128;SDS011;553;51.038;7.216;2023-02-15T03:10:24;41.17;;;21.80;;
1128;SDS011;553;51.038;7.216;2023-02-15T03:12:51;44.03;;;23.00;;
1128;SDS011;553;51.038;7.216;2023-02-15T03:15:26;39.93;;;23.00;;
1128;SDS011;553;51.038;7.216;2023-02-15T03:18:20;44.70;;;23.90;;
1128;SDS011;553;51.038;7.216;2023-02-15T03:20:51;42.70;;;24.23;;
1128;SDS011;553;51.038;7.216;2023-02-15T03:23:20;39.90;;;22.20;;
1128;SDS011;553;51.038;7.216;2023-02-15T03:25:58;42.17;;;23.42;;
1128;SDS011;553;51.038;7.216;2023-02-15T03:28:33;46.50;;;24.60;;
1128;SDS011;553;51.038;7.216;2023-02-15T03:31:05;43.40;;;21.80;;
1128;SDS011;553;51.038;7.216;2023-02-15T03:33:35;44.23;;;23.70;;
1128;SDS011;553;51.038;7.216;2023-02-15T03:36:09;43.13;;;24.77;;
1128;SDS011;553;51.038;7.216;2023-02-15T03:38:58;50.57;;;25.20;;
1128;SDS011;553;51.038;7.216;2023-02-15T03:41:32;40.30;;;23.93;;
1128;SDS011;553;51.038;7.216;2023-02-15T03:44:04;42.65;;;24.00;;
1128;SDS011;553;51.038;7.216;2023-02-15T03:46:42;40.20;;;23.03;;
1128;SDS011;553;51.038;7.216;2023-02-15T03:49:42;44.60;;;24.30;;
1128;SDS011;553;51.038;7.216;2023-02-15T03:52:17;41.88;;;22.65;;
1128;SDS011;553;51.038;7.216;2023-02-15T03:54:46;48.92;;;22.92;;
1128;SDS011;553;51.038;7.216;2023-02-15T03:57:23;41.75;;;22.02;;
1128;SDS011;553;51.038;7.216;2023-02-15T04:00:13;48.20;;;23.37;;
1128;SDS011;553;51.038;7.216;2023-02-15T04:05:53;43.77;;;21.90;;
1128;SDS011;553;51.038;7.216;2023-02-15T04:08:19;41.23;;;21.40;;
1128;SDS011;553;51.038;7.216;2023-02-15T04:10:46;43.13;;;21.90;;
1128;SDS011;553;51.038;7.216;2023-02-15T04:13:19;43.45;;;22.92;;
1128;SDS011;553;51.038;7.216;2023-02-15T04:15:48;37.97;;;21.80;;
1128;SDS011;553;51.038;7.216;2023-02-15T04:18:34;44.37;;;22.50;;
1128;SDS011;553;51.038;7.216;2023-02-15T04:21:21;41.20;;;23.10;;
1128;SDS011;553;51.038;7.216;2023-02-15T04:24:07;46.67;;;23.10;;
1128;SDS011;553;51.038;7.216;2023-02-15T04:26:53;45.00;;;22.80;;
1128;SDS011;553;51.038;7.216;2023-02-15T04:29:20;41.90;;;21.80;;
1128;SDS011;553;51.038;7.216;2023-02-15T04:31:49;43.70;;;21.07;;
1128;SDS011;553;51.038;7.216;2023-02-15T04:34:16;43.30;;;22.93;;
1128;SDS011;553;51.038;7.216;2023-02-15T04:36:43;43.63;;;22.90;;
1128;SDS011;553;51.038;7.216;2023-02-15T04:39:12;36.07;;;20.17;;
1128;SDS011;553;51.038;7.216;2023-02-15T04:41:40;39.90;;;21.20;;
1128;SDS011;553;51.038;7.216;2023-02-15T04:44:07;45.70;;;22.17;;
1128;SDS011;553;51.038;7.216;2023-02-15T04:46:34;46.40;;;22.93;;
1128;SDS011;553;51.038;7.216;2023-02-15T04:49:01;47.40;;;23.00;;
1128;SDS011;553;51.038;7.216;2023-02-15T04:51:28;40.17;;;21.50;;
1128;SDS011;553;51.038;7.216;2023-02-15T04:53:54;34.93;;;20.63;;
1128;SDS011;553;51.038;7.216;2023-02-15T04:56:22;41.43;;;20.63;;
1128;SDS011;553;51.038;7.216;2023-02-15T04:58:49;43.70;;;22.38;;
1128;SDS011;553;51.038;7.216;2023-02-15T05:01:16;41.37;;;19.80;;
1128;SDS011;553;51.038;7.216;2023-02-15T05:03:43;38.45;;;21.23;;
1128;SDS011;553;51.038;7.216;2023-02-15T05:06:10;42.25;;;22.52;;
1128;SDS011;553;51.038;7.216;2023-02-15T05:08:37;35.97;;;19.43;;
1128;SDS011;553;51.038;7.216;2023-02-15T05:11:03;41.35;;;20.10;;
1128;SDS011;553;51.038;7.216;2023-02-15T05:13:30;41.08;;;22.50;;
1128;SDS011;553;51.038;7.216;2023-02-15T05:15:57;38.33;;;20.07;;
1128;SDS011;553;51.038;7.216;2023-02-15T05:18:24;42.28;;;21.40;;
1128;SDS011;553;51.038;7.216;2023-02-15T05:20:51;32.38;;;20.15;;
1128;SDS011;553;51.038;7.216;2023-02-15T05:23:17;39.42;;;21.25;;
1128;SDS011;553;51.038;7.216;2023-02-15T05:25:48;39.20;;;20.90;;
1128;SDS011;553;51.038;7.216;2023-02-15T05:28:34;41.13;;;21.45;;
1128;SDS011;553;51.038;7.216;2023-02-15T05:33:34;37.58;;;20.58;;
1128;SDS011;553;51.038;7.216;2023-02-15T05:36:01;38.15;;;20.13;;
1128;SDS011;553;51.038;7.216;2023-02-15T05:38:29;37.75;;;20.42;;
1128;SDS011;553;51.038;7.216;2023-02-15T05:40:56;38.45;;;19.65;;
1128;SDS011;553;51.038;7.216;2023-02-15T05:43:23;40.60;;;20.90;;
1128;SDS011;553;51.038;7.216;2023-02-15T05:45:51;38.53;;;21.90;;
1128;SDS011;553;51.038;7.216;2023-02-15T05:48:19;35.67;;;20.33;;
1128;SDS011;553;51.038;7.216;2023-02-15T05:50:56;38.50;;;19.70;;
1128;SDS011;553;51.038;7.216;2023-02-15T05:53:28;36.20;;;20.83;;
1128;SDS011;553;51.038;7.216;2023-02-15T05:55:56;34.97;;;20.10;;
1128;SDS011;553;51.038;7.216;2023-02-15T05:58:26;34.35;;;18.88;;
1128;SDS011;553;51.038;7.216;2023-02-15T06:01:06;35.75;;;19.02;;
1128;SDS011;553;51.038;7.216;2023-02-15T06:03:34;35.35;;;19.42;;
1128;SDS011;553;51.038;7.216;2023-02-15T06:06:01;35.83;;;19.13;;
1128;SDS011;553;51.038;7.216;2023-02-15T06:08:31;38.97;;;19.67;;
1128;SDS011;553;51.038;7.216;2023-02-15T06:10:58;35.15;;;19.92;;
1128;SDS011;553;51.038;7.216;2023-02-15T06:13:25;46.23;;;20.53;;
1128;SDS011;553;51.038;7.216;2023-02-15T06:15:52;36.25;;;20.17;;
1128;SDS011;553;51.038;7.216;2023-02-15T06:18:19;37.15;;;20.65;;
1128;SDS011;553;51.038;7.216;2023-02-15T06:20:46;32.80;;;19.30;;
1128;SDS011;553;51.038;7.216;2023-02-15T06:23:14;35.55;;;18.45;;
1128;SDS011;553;51.038;7.216;2023-02-15T06:25:41;39.53;;;19.85;;
1128;SDS011;553;51.038;7.216;2023-02-15T06:28:08;33.22;;;18.35;;
1128;SDS011;553;51.038;7.216;2023-02-15T06:30:35;33.08;;;18.00;;
1128;SDS011;553;51.038;7.216;2023-02-15T06:33:01;35.28;;;19.20;;
1128;SDS011;553;51.038;7.216;2023-02-15T06:35:28;34.30;;;18.70;;
1128;SDS011;553;51.038;7.216;2023-02-15T06:37:55;29.60;;;18.57;;
1128;SDS011;553;51.038;7.216;2023-02-15T06:40:22;34.13;;;18.95;;
1128;SDS011;553;51.038;7.216;2023-02-15T06:42:48;36.20;;;19.88;;
1128;SDS011;553;51.038;7.216;2023-02-15T06:45:15;32.15;;;18.13;;
1128;SDS011;553;51.038;7.216;2023-02-15T06:47:42;36.90;;;19.50;;
1128;SDS011;553;51.038;7.216;2023-02-15T06:50:09;37.50;;;19.50;;
1128;SDS011;553;51.038;7.216;2023-02-15T06:52:36;35.83;;;18.90;;
1128;SDS011;553;51.038;7.216;2023-02-15T06:55:03;36.77;;;20.17;;
1128;SDS011;553;51.038;7.216;2023-02-15T06:57:30;34.35;;;19.52;;
1128;SDS011;553;51.038;7.216;2023-02-15T06:59:59;36.47;;;19.90;;
1128;SDS011;553;51.038;7.216;2023-02-15T07:02:26;33.60;;;17.92;;
1128;SDS011;553;51.038;7.216;2023-02-15T07:04:52;31.00;;;17.80;;
1128;SDS011;553;51.038;7.216;2023-02-15T07:07:19;33.53;;;19.08;;
1128;SDS011;553;51.038;7.216;2023-02-15T07:09:46;34.85;;;19.45;;
1128;SDS011;553;51.038;7.216;2023-02-15T07:12:13;32.53;;;16.77;;
1128;SDS011;553;51.038;7.216;2023-02-15T07:14:58;41.42;;;19.23;;
1128;SDS011;553;51.038;7.216;2023-02-15T07:17:25;33.38;;;17.63;;
1128;SDS011;553;51.038;7.216;2023-02-15T07:20:03;33.08;;;19.05;;
1128;SDS011;553;51.038;7.216;2023-02-15T07:22:32;32.92;;;16.13;;
1128;SDS011;553;51.038;7.216;2023-02-15T07:25:00;27.65;;;16.10;;
1128;SDS011;553;51.038;7.216;2023-02-15T07:27:27;32.13;;;16.98;;
1128;SDS011;553;51.038;7.216;2023-02-15T07:29:53;31.35;;;17.20;;
1128;SDS011;553;51.038;7.216;2023-02-15T07:32:20;32.65;;;18.02;;
1128;SDS011;553;51.038;7.216;2023-02-15T07:34:47;29.05;;;15.55;;
1128;SDS011;553;51.038;7.216;2023-02-15T07:37:13;32.28;;;18.17;;
1128;SDS011;553;51.038;7.216;2023-02-15T07:39:40;28.25;;;16.10;;
1128;SDS011;553;51.038;7.216;2023-02-15T07:42:07;31.25;;;17.00;;
1128;SDS011;553;51.038;7.216;2023-02-15T07:44:35;34.00;;;15.48;;
1128;SDS011;553;51.038;7.216;2023-02-15T07:47:01;28.00;;;16.57;;
1128;SDS011;553;51.038;7.216;2023-02-15T07:49:28;34.45;;;16.35;;
1128;SDS011;553;51.038;7.216;2023-02-15T07:51:55;27.98;;;15.23;;
1128;SDS011;553;51.038;7.216;2023-02-15T07:54:21;23.10;;;14.73;;
1128;SDS011;553;51.038;7.216;2023-02-15T07:56:48;27.77;;;15.23;;
1128;SDS011;553;51.038;7.216;2023-02-15T07:59:15;28.92;;;15.77;;
1128;SDS011;553;51.038;7.216;2023-02-15T08:01:41;26.23;;;14.98;;
1128;SDS011;553;51.038;7.216;2023-02-15T08:04:08;25.53;;;15.13;;
1128;SDS011;553;51.038;7.216;2023-02-15T08:06:37;25.42;;;14.82;;
1128;SDS011;553;51.038;7.216;2023-02-15T08:09:08;26.03;;;15.53;;
1128;SDS011;553;51.038;7.216;2023-02-15T08:11:36;28.83;;;15.03;;
1128;SDS011;553;51.038;7.216;2023-02-15T08:19:03;26.80;;;14.33;;
1128;SDS011;553;51.038;7.216;2023-02-15T08:21:35;25.73;;;15.70;;
1128;SDS011;553;51.038;7.216;2023-02-15T08:24:04;27.70;;;15.23;;
1128;SDS011;553;51.038;7.216;2023-02-15T08:26:32;25.15;;;14.45;;
1128;SDS011;553;51.038;7.216;2023-02-15T08:28:59;26.33;;;15.00;;
1128;SDS011;553;51.038;7.216;2023-02-15T08:31:27;24.10;;;15.03;;
1128;SDS011;553;51.038;7.216;2023-02-15T08:33:55;25.03;;;14.60;;
1128;SDS011;553;51.038;7.216;2023-02-15T08:36:24;27.30;;;14.90;;
1128;SDS011;553;51.038;7.216;2023-02-15T08:38:53;26.50;;;15.00;;
1128;SDS011;553;51.038;7.216;2023-02-15T08:41:24;23.43;;;14.97;;
1128;SDS011;553;51.038;7.216;2023-02-15T08:43:53;27.67;;;12.97;;
1128;SDS011;553;51.038;7.216;2023-02-15T08:46:22;18.00;;;11.53;;
1128;SDS011;553;51.038;7.216;2023-02-15T08:48:51;19.80;;;12.50;;
1128;SDS011;553;51.038;7.216;2023-02-15T08:51:19;25.10;;;13.60;;
1128;SDS011;553;51.038;7.216;2023-02-15T08:53:49;23.43;;;12.37;;
1128;SDS011;553;51.038;7.216;2023-02-15T08:56:18;20.90;;;12.50;;
1128;SDS011;553;51.038;7.216;2023-02-15T08:58:47;28.30;;;12.90;;
1128;SDS011;553;51.038;7.216;2023-02-15T09:01:18;19.10;;;11.97;;
1128;SDS011;553;51.038;7.216;2023-02-15T09:03:47;19.40;;;12.10;;
1128;SDS011;553;51.038;7.216;2023-02-15T09:06:16;20.90;;;11.90;;
1128;SDS011;553;51.038;7.216;2023-02-15T09:08:43;21.53;;;12.53;;
1128;SDS011;553;51.038;7.216;2023-02-15T09:11:14;19.27;;;11.63;;
1128;SDS011;553;51.038;7.216;2023-02-15T09:13:49;18.97;;;11.53;;
1128;SDS011;553;51.038;7.216;2023-02-15T09:16:18;23.17;;;12.70;;
1128;SDS011;553;51.038;7.216;2023-02-15T09:18:45;20.60;;;12.63;;
1128;SDS011;553;51.038;7.216;2023-02-15T09:21:13;19.40;;;12.43;;
1128;SDS011;553;51.038;7.216;2023-02-15T09:23:44;21.93;;;12.00;;
1128;SDS011;553;51.038;7.216;2023-02-15T09:26:13;19.07;;;11.67;;
1128;SDS011;553;51.038;7.216;2023-02-15T09:28:42;16.20;;;11.20;;
1128;SDS011;553;51.038;7.216;2023-02-15T09:31:10;19.10;;;11.93;;
1128;SDS011;553;51.038;7.216;2023-02-15T09:33:41;17.50;;;11.53;;
1128;SDS011;553;51.038;7.216;2023-02-15T09:36:20;22.27;;;12.33;;
1128;SDS011;553;51.038;7.216;2023-02-15T09:38:57;16.40;;;10.23;;
1128;SDS011;553;51.038;7.216;2023-02-15T09:44:32;17.30;;;10.93;;
1128;SDS011;553;51.038;7.216;2023-02-15T09:47:09;14.80;;;11.13;;
1128;SDS011;553;51.038;7.216;2023-02-15T09:50:10;19.07;;;11.17;;
1128;SDS011;553;51.038;7.216;2023-02-15T10:01:07;16.80;;;10.60;;
1128;SDS011;553;51.038;7.216;2023-02-15T10:03:51;14.90;;;9.47;;
1128;SDS011;553;51.038;7.216;2023-02-15T10:06:34;16.97;;;10.70;;
1128;SDS011;553;51.038;7.216;2023-02-15T10:09:15;15.53;;;10.80;;
1128;SDS011;553;51.038;7.216;2023-02-15T10:11:57;13.80;;;9.67;;
1128;SDS011;553;51.038;7.216;2023-02-15T10:22:21;14.80;;;10.67;;
1128;SDS011;553;51.038;7.216;2023-02-15T10:25:10;15.30;;;10.87;;
1128;SDS011;553;51.038;7.216;2023-02-15T10:28:09;15.87;;;9.77;;
1128;SDS011;553;51.038;7.216;2023-02-15T10:30:46;13.50;;;9.50;;
1128;SDS011;553;51.038;7.216;2023-02-15T10:39:07;14.37;;;9.40;;
1128;SDS011;553;51.038;7.216;2023-02-15T10:47:41;16.03;;;11.03;;
1128;SDS011;553;51.038;7.216;2023-02-15T10:53:13;18.03;;;10.33;;
1128;SDS011;553;51.038;7.216;2023-02-15T11:01:32;14.83;;;10.53;;
1128;SDS011;553;51.038;7.216;2023-02-15T11:04:21;14.17;;;9.83;;
1128;SDS011;553;51.038;7.216;2023-02-15T11:07:10;13.90;;;9.80;;
1128;SDS011;553;51.038;7.216;2023-02-15T11:09:49;16.27;;;10.23;;
1128;SDS011;553;51.038;7.216;2023-02-15T11:12:36;15.80;;;10.50;;
1128;SDS011;553;51.038;7.216;2023-02-15T11:15:04;17.70;;;10.53;;
1128;SDS011;553;51.038;7.216;2023-02-15T11:17:39;16.33;;;11.40;;
1128;SDS011;553;51.038;7.216;2023-02-15T11:22:53;18.00;;;10.77;;
1128;SDS011;553;51.038;7.216;2023-02-15T11:25:23;14.70;;;10.03;;
1128;SDS011;553;51.038;7.216;2023-02-15T11:27:56;14.83;;;10.00;;
1128;SDS011;553;51.038;7.216;2023-02-15T11:30:24;16.50;;;10.27;;
1128;SDS011;553;51.038;7.216;2023-02-15T11:32:58;14.90;;;10.27;;
1128;SDS011;553;51.038;7.216;2023-02-15T11:35:42;15.17;;;10.33;;
1128;SDS011;553;51.038;7.216;2023-02-15T11:38:22;14.40;;;10.10;;
1128;SDS011;553;51.038;7.216;2023-02-15T11:40:56;14.40;;;11.00;;
1128;SDS011;553;51.038;7.216;2023-02-15T11:45:58;16.70;;;11.30;;
1128;SDS011;553;51.038;7.216;2023-02-15T11:48:25;16.37;;;10.40;;
1128;SDS011;553;51.038;7.216;2023-02-15T11:50:52;14.97;;;9.90;;
1128;SDS011;553;51.038;7.216;2023-02-15T11:53:19;14.50;;;10.47;;
1128;SDS011;553;51.038;7.216;2023-02-15T11:55:51;17.10;;;10.10;;
1128;SDS011;553;51.038;7.216;2023-02-15T12:06:38;17.60;;;10.90;;
1128;SDS011;553;51.038;7.216;2023-02-15T12:14:52;15.20;;;10.60;;
1128;SDS011;553;51.038;7.216;2023-02-15T12:17:21;16.17;;;10.57;;
1128;SDS011;553;51.038;7.216;2023-02-15T12:19:50;16.43;;;10.27;;
1128;SDS011;553;51.038;7.216;2023-02-15T12:22:20;17.83;;;11.73;;
1128;SDS011;553;51.038;7.216;2023-02-15T12:24:54;14.43;;;10.67;;
1128;SDS011;553;51.038;7.216;2023-02-15T12:27:27;15.13;;;10.53;;
1128;SDS011;553;51.038;7.216;2023-02-15T12:30:03;17.73;;;11.20;;
1128;SDS011;553;51.038;7.216;2023-02-15T12:32:49;18.37;;;11.30;;
1128;SDS011;553;51.038;7.216;2023-02-15T12:38:01;17.37;;;10.57;;
1128;SDS011;553;51.038;7.216;2023-02-15T12:41:00;19.57;;;12.60;;
1128;SDS011;553;51.038;7.216;2023-02-15T12:43:35;17.53;;;11.53;;
1128;SDS011;553;51.038;7.216;2023-02-15T12:46:13;14.67;;;11.03;;
1128;SDS011;553;51.038;7.216;2023-02-15T12:48:40;17.07;;;11.00;;
1128;SDS011;553;51.038;7.216;2023-02-15T12:51:08;16.73;;;11.40;;
1128;SDS011;553;51.038;7.216;2023-02-15T12:53:39;19.13;;;11.67;;
1128;SDS011;553;51.038;7.216;2023-02-15T12:56:10;17.37;;;11.97;;
1128;SDS011;553;51.038;7.216;2023-02-15T12:58:40;21.73;;;12.30;;
1128;SDS011;553;51.038;7.216;2023-02-15T13:03:56;18.40;;;12.67;;
1128;SDS011;553;51.038;7.216;2023-02-15T13:06:31;20.10;;;12.37;;
1128;SDS011;553;51.038;7.216;2023-02-15T13:09:17;16.30;;;11.30;;
1128;SDS011;553;51.038;7.216;2023-02-15T13:11:45;17.70;;;11.53;;
1128;SDS011;553;51.038;7.216;2023-02-15T13:14:20;15.33;;;11.50;;
1128;SDS011;553;51.038;7.216;2023-02-15T13:16:49;15.80;;;11.60;;
1128;SDS011;553;51.038;7.216;2023-02-15T13:19:20;20.07;;;12.50;;
1128;SDS011;553;51.038;7.216;2023-02-15T13:21:55;14.63;;;10.40;;
1128;SDS011;553;51.038;7.216;2023-02-15T13:24:24;16.73;;;11.67;;
1128;SDS011;553;51.038;7.216;2023-02-15T13:27:16;19.97;;;12.23;;
1128;SDS011;553;51.038;7.216;2023-02-15T13:29:56;18.10;;;12.20;;
1128;SDS011;553;51.038;7.216;2023-02-15T13:32:31;16.23;;;11.60;;
1128;SDS011;553;51.038;7.216;2023-02-15T13:35:10;17.40;;;12.10;;
1128;SDS011;553;51.038;7.216;2023-02-15T13:37:47;15.90;;;10.80;;
1128;SDS011;553;51.038;7.216;2023-02-15T13:46:34;16.20;;;11.53;;
1128;SDS011;553;51.038;7.216;2023-02-15T13:54:30;19.97;;;12.77;;
1128;SDS011;553;51.038;7.216;2023-02-15T13:59:46;22.07;;;13.27;;
1128;SDS011;553;51.038;7.216;2023-02-15T14:08:20;17.40;;;12.47;;
1128;SDS011;553;51.038;7.216;2023-02-15T14:16:30;16.73;;;12.00;;
1128;SDS011;553;51.038;7.216;2023-02-15T14:19:52;20.20;;;12.67;;
1128;SDS011;553;51.038;7.216;2023-02-15T14:22:35;19.70;;;11.90;;
1128;SDS011;553;51.038;7.216;2023-02-15T14:30:44;19.80;;;12.20;;
1128;SDS011;553;51.038;7.216;2023-02-15T14:35:50;23.67;;;12.40;;
1128;SDS011;553;51.038;7.216;2023-02-15T14:45:04;20.70;;;12.97;;
1128;SDS011;553;51.038;7.216;2023-02-15T14:47:28;17.53;;;11.97;;
1128;SDS011;553;51.038;7.216;2023-02-15T14:53:16;19.87;;;12.30;;
1128;SDS011;553;51.038;7.216;2023-02-15T15:01:15;20.57;;;12.80;;
1128;SDS011;553;51.038;7.216;2023-02-15T15:03:51;21.40;;;12.80;;
1128;SDS011;553;51.038;7.216;2023-02-15T15:06:24;16.10;;;12.00;;
1128;SDS011;553;51.038;7.216;2023-02-15T15:09:00;18.43;;;12.43;;
1128;SDS011;553;51.038;7.216;2023-02-15T15:11:50;18.13;;;12.43;;
1128;SDS011;553;51.038;7.216;2023-02-15T15:17:01;21.50;;;13.07;;
1128;SDS011;553;51.038;7.216;2023-02-15T15:22:22;19.60;;;13.40;;
1128;SDS011;553;51.038;7.216;2023-02-15T15:24:51;20.23;;;12.93;;
1128;SDS011;553;51.038;7.216;2023-02-15T15:32:42;19.30;;;12.90;;
1128;SDS011;553;51.038;7.216;2023-02-15T15:41:05;17.67;;;12.27;;
1128;SDS011;553;51.038;7.216;2023-02-15T15:49:19;22.10;;;14.23;;
1128;SDS011;553;51.038;7.216;2023-02-15T15:51:47;23.40;;;12.40;;
1128;SDS011;553;51.038;7.216;2023-02-15T15:54:20;22.67;;;14.20;;
1128;SDS011;553;51.038;7.216;2023-02-15T15:56:48;20.13;;;13.57;;
1128;SDS011;553;51.038;7.216;2023-02-15T15:59:22;20.53;;;12.33;;
1128;SDS011;553;51.038;7.216;2023-02-15T16:02:03;21.43;;;13.57;;
1128;SDS011;553;51.038;7.216;2023-02-15T16:04:34;19.53;;;12.27;;
1128;SDS011;553;51.038;7.216;2023-02-15T16:09:59;20.10;;;12.80;;
1128;SDS011;553;51.038;7.216;2023-02-15T16:12:28;19.90;;;13.00;;
1128;SDS011;553;51.038;7.216;2023-02-15T16:14:57;21.47;;;12.83;;
1128;SDS011;553;51.038;7.216;2023-02-15T16:17:30;19.57;;;13.30;;
1128;SDS011;553;51.038;7.216;2023-02-15T16:20:11;22.00;;;13.50;;
1128;SDS011;553;51.038;7.216;2023-02-15T16:28:39;18.37;;;11.80;;
1128;SDS011;553;51.038;7.216;2023-02-15T16:31:14;22.57;;;13.60;;
1128;SDS011;553;51.038;7.216;2023-02-15T16:33:42;22.63;;;13.73;;
1128;SDS011;553;51.038;7.216;2023-02-15T16:36:44;43.30;;;24.87;;
1128;SDS011;553;51.038;7.216;2023-02-15T16:39:08;19.87;;;13.97;;
1128;SDS011;553;51.038;7.216;2023-02-15T16:41:45;23.67;;;15.10;;
1128;SDS011;553;51.038;7.216;2023-02-15T16:44:16;21.20;;;14.67;;
1128;SDS011;553;51.038;7.216;2023-02-15T16:46:49;23.03;;;15.17;;
1128;SDS011;553;51.038;7.216;2023-02-15T16:49:18;24.13;;;16.00;;
1128;SDS011;553;51.038;7.216;2023-02-15T16:52:04;22.00;;;14.47;;
1128;SDS011;553;51.038;7.216;2023-02-15T16:54:33;22.70;;;15.27;;
1128;SDS011;553;51.038;7.216;2023-02-15T16:57:01;20.00;;;13.63;;
1128;SDS011;553;51.038;7.216;2023-02-15T16:59:30;24.97;;;14.27;;
1128;SDS011;553;51.038;7.216;2023-02-15T17:02:06;24.33;;;15.07;;
1128;SDS011;553;51.038;7.216;2023-02-15T17:05:12;23.00;;;14.93;;
1128;SDS011;553;51.038;7.216;2023-02-15T17:10:30;23.00;;;15.70;;
1128;SDS011;553;51.038;7.216;2023-02-15T17:13:03;22.70;;;13.70;;
1128;SDS011;553;51.038;7.216;2023-02-15T17:15:40;25.90;;;15.63;;
1128;SDS011;553;51.038;7.216;2023-02-15T17:18:18;24.90;;;15.17;;
1128;SDS011;553;51.038;7.216;2023-02-15T17:20:48;23.13;;;14.63;;
1128;SDS011;553;51.038;7.216;2023-02-15T17:23:39;20.77;;;13.40;;
1128;SDS011;553;51.038;7.216;2023-02-15T17:26:24;21.37;;;13.80;;
1128;SDS011;553;51.038;7.216;2023-02-15T17:28:56;25.50;;;14.83;;
1128;SDS011;553;51.038;7.216;2023-02-15T17:31:26;24.37;;;15.27;;
1128;SDS011;553;51.038;7.216;2023-02-15T17:33:58;19.43;;;12.93;;
1128;SDS011;553;51.038;7.216;2023-02-15T17:36:27;24.47;;;15.67;;
1128;SDS011;553;51.038;7.216;2023-02-15T17:41:33;25.37;;;15.37;;
1128;SDS011;553;51.038;7.216;2023-02-15T17:44:03;22.00;;;14.47;;
1128;SDS011;553;51.038;7.216;2023-02-15T17:46:34;21.60;;;13.67;;
1128;SDS011;553;51.038;7.216;2023-02-15T17:49:03;23.40;;;14.80;;
1128;SDS011;553;51.038;7.216;2023-02-15T17:51:30;26.30;;;15.47;;
1128;SDS011;553;51.038;7.216;2023-02-15T17:53:58;21.47;;;13.27;;
1128;SDS011;553;51.038;7.216;2023-02-15T17:56:44;25.20;;;15.00;;
1128;SDS011;553;51.038;7.216;2023-02-15T17:59:10;21.67;;;12.77;;
1128;SDS011;553;51.038;7.216;2023-02-15T18:01:43;23.70;;;13.43;;
1128;SDS011;553;51.038;7.216;2023-02-15T18:04:31;20.40;;;13.23;;
1128;SDS011;553;51.038;7.216;2023-02-15T18:07:20;23.07;;;13.97;;
1128;SDS011;553;51.038;7.216;2023-02-15T18:10:15;26.10;;;15.03;;
1128;SDS011;553;51.038;7.216;2023-02-15T18:13:02;21.50;;;13.93;;
1128;SDS011;553;51.038;7.216;2023-02-15T18:15:29;22.57;;;14.10;;
1128;SDS011;553;51.038;7.216;2023-02-15T18:17:56;23.03;;;14.50;;
1128;SDS011;553;51.038;7.216;2023-02-15T18:20:24;27.60;;;16.10;;
1128;SDS011;553;51.038;7.216;2023-02-15T18:22:54;20.43;;;13.20;;
1128;SDS011;553;51.038;7.216;2023-02-15T18:25:21;23.10;;;14.07;;
1128;SDS011;553;51.038;7.216;2023-02-15T18:27:50;27.60;;;19.13;;
1128;SDS011;553;51.038;7.216;2023-02-15T18:30:21;21.00;;;14.40;;
1128;SDS011;553;51.038;7.216;2023-02-15T18:32:51;24.50;;;15.17;;
1128;SDS011;553;51.038;7.216;2023-02-15T18:35:22;23.47;;;15.13;;
1128;SDS011;553;51.038;7.216;2023-02-15T18:37:51;24.40;;;14.63;;